sensor_id;sensor_type;location;lat;lon;timestamp;temperature;humidity
1447;DHT22;717;51.522;7.266;2022-07-23T00:01:05;23.40;99.90
1447;DHT22;717;51.522;7.266;2022-07-23T00:03:32;23.30;99.90
1447;DHT22;717;51.522;7.266;2022-07-23T00:05:58;23.30;99.90
1447;DHT22;717;51.522;7.266;2022-07-23T00:08:25;23.30;99.90
1447;DHT22;717;51.522;7.266;2022-07-23T00:10:53;23.30;99.90
1447;DHT22;717;51.522;7.266;2022-07-23T00:13:20;23.30;99.90
1447;DHT22;717;51.522;7.266;2022-07-23T00:15:47;23.20;99.90
1447;DHT22;717;51.522;7.266;2022-07-23T00:18:13;23.20;99.90
1447;DHT22;717;51.522;7.266;2022-07-23T00:20:40;23.20;99.90
1447;DHT22;717;51.522;7.266;2022-07-23T00:23:07;23.20;99.90
1447;DHT22;717;51.522;7.266;2022-07-23T00:25:34;23.20;99.90
1447;DHT22;717;51.522;7.266;2022-07-23T00:28:03;23.20;99.90
1447;DHT22;717;51.522;7.266;2022-07-23T00:30:30;23.20;99.90
1447;DHT22;717;51.522;7.266;2022-07-23T00:32:59;23.20;99.90
1447;DHT22;717;51.522;7.266;2022-07-23T00:35:28;23.20;99.90
1447;DHT22;717;51.522;7.266;2022-07-23T00:37:55;23.10;99.90
1447;DHT22;717;51.522;7.266;2022-07-23T00:40:22;23.10;99.90
1447;DHT22;717;51.522;7.266;2022-07-23T00:42:49;23.10;99.90
1447;DHT22;717;51.522;7.266;2022-07-23T00:45:17;23.10;99.90
1447;DHT22;717;51.522;7.266;2022-07-23T00:47:44;23.10;99.90
1447;DHT22;717;51.522;7.266;2022-07-23T00:50:11;23.10;99.90
1447;DHT22;717;51.522;7.266;2022-07-23T00:52:39;23.10;99.90
1447;DHT22;717;51.522;7.266;2022-07-23T00:55:08;23.00;99.90
1447;DHT22;717;51.522;7.266;2022-07-23T00:57:35;23.00;99.90
1447;DHT22;717;51.522;7.266;2022-07-23T01:00:03;23.00;99.90
1447;DHT22;717;51.522;7.266;2022-07-23T01:02:31;23.00;99.90
1447;DHT22;717;51.522;7.266;2022-07-23T01:04:58;23.00;99.90
1447;DHT22;717;51.522;7.266;2022-07-23T01:07:25;23.00;99.90
1447;DHT22;717;51.522;7.266;2022-07-23T01:09:52;23.00;99.90
1447;DHT22;717;51.522;7.266;2022-07-23T01:12:19;23.00;99.90
1447;DHT22;717;51.522;7.266;2022-07-23T01:14:53;23.00;99.90
1447;DHT22;717;51.522;7.266;2022-07-23T01:17:20;23.00;99.90
1447;DHT22;717;51.522;7.266;2022-07-23T01:19:48;22.90;99.90
1447;DHT22;717;51.522;7.266;2022-07-23T01:22:18;22.90;99.90
1447;DHT22;717;51.522;7.266;2022-07-23T01:24:47;22.90;99.90
1447;DHT22;717;51.522;7.266;2022-07-23T01:27:13;22.90;99.90
1447;DHT22;717;51.522;7.266;2022-07-23T01:29:43;22.90;99.90
1447;DHT22;717;51.522;7.266;2022-07-23T01:32:09;22.90;99.90
1447;DHT22;717;51.522;7.266;2022-07-23T01:34:36;22.90;99.90
1447;DHT22;717;51.522;7.266;2022-07-23T01:37:03;22.90;99.90
1447;DHT22;717;51.522;7.266;2022-07-23T01:39:29;22.90;99.90
1447;DHT22;717;51.522;7.266;2022-07-23T01:41:57;22.90;99.90
1447;DHT22;717;51.522;7.266;2022-07-23T01:44:24;22.80;99.90
1447;DHT22;717;51.522;7.266;2022-07-23T01:46:51;22.90;99.90
1447;DHT22;717;51.522;7.266;2022-07-23T01:49:17;22.90;99.90
1447;DHT22;717;51.522;7.266;2022-07-23T01:51:44;22.90;99.90
1447;DHT22;717;51.522;7.266;2022-07-23T02:30:57;22.70;99.90
1447;DHT22;717;51.522;7.266;2022-07-23T02:33:23;22.70;99.90
1447;DHT22;717;51.522;7.266;2022-07-23T02:35:50;22.70;99.90
1447;DHT22;717;51.522;7.266;2022-07-23T02:38:17;22.70;99.90
1447;DHT22;717;51.522;7.266;2022-07-23T02:40:44;22.70;99.90
1447;DHT22;717;51.522;7.266;2022-07-23T02:43:11;22.70;99.90
1447;DHT22;717;51.522;7.266;2022-07-23T02:45:37;22.70;99.90
1447;DHT22;717;51.522;7.266;2022-07-23T02:48:05;22.70;99.90
1447;DHT22;717;51.522;7.266;2022-07-23T02:50:32;22.70;99.90
1447;DHT22;717;51.522;7.266;2022-07-23T02:52:59;22.70;99.90
1447;DHT22;717;51.522;7.266;2022-07-23T02:55:26;22.70;99.90
1447;DHT22;717;51.522;7.266;2022-07-23T02:57:52;22.70;99.90
1447;DHT22;717;51.522;7.266;2022-07-23T03:00:19;22.70;99.90
1447;DHT22;717;51.522;7.266;2022-07-23T03:02:46;22.70;99.90
1447;DHT22;717;51.522;7.266;2022-07-23T03:05:14;22.70;99.90
1447;DHT22;717;51.522;7.266;2022-07-23T03:07:41;22.60;99.90
1447;DHT22;717;51.522;7.266;2022-07-23T03:10:08;22.60;99.90
1447;DHT22;717;51.522;7.266;2022-07-23T03:12:35;22.60;99.90
1447;DHT22;717;51.522;7.266;2022-07-23T03:15:02;22.60;99.90
1447;DHT22;717;51.522;7.266;2022-07-23T03:17:28;22.50;99.90
1447;DHT22;717;51.522;7.266;2022-07-23T03:19:55;22.50;99.90
1447;DHT22;717;51.522;7.266;2022-07-23T03:22:23;22.50;99.90
1447;DHT22;717;51.522;7.266;2022-07-23T03:24:50;22.50;99.90
1447;DHT22;717;51.522;7.266;2022-07-23T03:27:24;22.50;99.90
1447;DHT22;717;51.522;7.266;2022-07-23T03:29:52;22.50;99.90
1447;DHT22;717;51.522;7.266;2022-07-23T03:32:19;22.50;99.90
1447;DHT22;717;51.522;7.266;2022-07-23T03:34:46;22.50;99.90
1447;DHT22;717;51.522;7.266;2022-07-23T03:37:13;22.50;99.90
1447;DHT22;717;51.522;7.266;2022-07-23T03:39:41;22.40;99.90
1447;DHT22;717;51.522;7.266;2022-07-23T03:42:08;22.40;99.90
1447;DHT22;717;51.522;7.266;2022-07-23T03:44:35;22.40;99.90
1447;DHT22;717;51.522;7.266;2022-07-23T03:47:04;22.40;99.90
1447;DHT22;717;51.522;7.266;2022-07-23T03:49:31;22.40;99.90
1447;DHT22;717;51.522;7.266;2022-07-23T03:51:58;22.40;99.90
1447;DHT22;717;51.522;7.266;2022-07-23T03:54:25;22.40;99.90
1447;DHT22;717;51.522;7.266;2022-07-23T03:56:53;22.30;99.90
1447;DHT22;717;51.522;7.266;2022-07-23T03:59:20;22.30;99.90
1447;DHT22;717;51.522;7.266;2022-07-23T04:01:47;22.30;99.90
1447;DHT22;717;51.522;7.266;2022-07-23T04:04:14;22.30;99.90
1447;DHT22;717;51.522;7.266;2022-07-23T04:06:40;22.30;99.90
1447;DHT22;717;51.522;7.266;2022-07-23T04:09:07;22.30;99.90
1447;DHT22;717;51.522;7.266;2022-07-23T04:11:34;22.30;99.90
1447;DHT22;717;51.522;7.266;2022-07-23T04:14:02;22.30;99.90
1447;DHT22;717;51.522;7.266;2022-07-23T04:16:29;22.30;99.90
1447;DHT22;717;51.522;7.266;2022-07-23T04:18:56;22.30;99.90
1447;DHT22;717;51.522;7.266;2022-07-23T04:21:23;22.30;99.90
1447;DHT22;717;51.522;7.266;2022-07-23T04:23:50;22.30;99.90
1447;DHT22;717;51.522;7.266;2022-07-23T04:26:17;22.30;99.90
1447;DHT22;717;51.522;7.266;2022-07-23T04:28:43;22.30;99.90
1447;DHT22;717;51.522;7.266;2022-07-23T04:31:11;22.20;99.90
1447;DHT22;717;51.522;7.266;2022-07-23T04:33:38;22.20;99.90
1447;DHT22;717;51.522;7.266;2022-07-23T04:36:05;22.20;99.90
1447;DHT22;717;51.522;7.266;2022-07-23T04:38:32;22.20;99.90
1447;DHT22;717;51.522;7.266;2022-07-23T04:40:59;22.20;99.90
1447;DHT22;717;51.522;7.266;2022-07-23T04:43:26;22.20;99.90
1447;DHT22;717;51.522;7.266;2022-07-23T04:45:52;22.20;99.90
1447;DHT22;717;51.522;7.266;2022-07-23T04:48:21;22.20;99.90
1447;DHT22;717;51.522;7.266;2022-07-23T04:50:48;22.20;99.90
1447;DHT22;717;51.522;7.266;2022-07-23T04:53:14;22.20;99.90
1447;DHT22;717;51.522;7.266;2022-07-23T04:55:43;22.20;99.90
1447;DHT22;717;51.522;7.266;2022-07-23T04:58:10;22.20;99.90
1447;DHT22;717;51.522;7.266;2022-07-23T05:00:36;22.20;99.90
1447;DHT22;717;51.522;7.266;2022-07-23T05:03:03;22.20;99.90
1447;DHT22;717;51.522;7.266;2022-07-23T05:05:32;22.10;99.90
1447;DHT22;717;51.522;7.266;2022-07-23T05:07:58;22.10;99.90
1447;DHT22;717;51.522;7.266;2022-07-23T05:10:25;22.10;99.90
1447;DHT22;717;51.522;7.266;2022-07-23T05:12:52;22.10;99.90
1447;DHT22;717;51.522;7.266;2022-07-23T05:15:19;22.10;99.90
1447;DHT22;717;51.522;7.266;2022-07-23T05:17:45;22.10;99.90
1447;DHT22;717;51.522;7.266;2022-07-23T05:20:12;22.10;99.90
1447;DHT22;717;51.522;7.266;2022-07-23T05:22:42;22.10;99.90
1447;DHT22;717;51.522;7.266;2022-07-23T05:25:09;22.10;99.90
1447;DHT22;717;51.522;7.266;2022-07-23T05:27:35;22.10;99.90
1447;DHT22;717;51.522;7.266;2022-07-23T05:30:03;22.10;99.90
1447;DHT22;717;51.522;7.266;2022-07-23T05:32:31;22.10;99.90
1447;DHT22;717;51.522;7.266;2022-07-23T05:34:58;22.10;99.90
1447;DHT22;717;51.522;7.266;2022-07-23T05:37:25;22.10;99.90
1447;DHT22;717;51.522;7.266;2022-07-23T05:39:53;22.10;99.90
1447;DHT22;717;51.522;7.266;2022-07-23T05:42:20;22.10;99.90
1447;DHT22;717;51.522;7.266;2022-07-23T05:44:47;22.10;99.90
1447;DHT22;717;51.522;7.266;2022-07-23T05:47:13;22.10;99.90
1447;DHT22;717;51.522;7.266;2022-07-23T05:49:40;22.10;99.90
1447;DHT22;717;51.522;7.266;2022-07-23T05:52:07;22.10;99.90
1447;DHT22;717;51.522;7.266;2022-07-23T05:54:35;22.10;99.90
1447;DHT22;717;51.522;7.266;2022-07-23T05:57:03;22.10;99.90
1447;DHT22;717;51.522;7.266;2022-07-23T05:59:30;22.10;99.90
1447;DHT22;717;51.522;7.266;2022-07-23T06:01:57;22.10;99.90
1447;DHT22;717;51.522;7.266;2022-07-23T06:04:24;22.10;99.90
1447;DHT22;717;51.522;7.266;2022-07-23T06:06:51;22.20;99.90
1447;DHT22;717;51.522;7.266;2022-07-23T06:09:18;22.20;99.90
1447;DHT22;717;51.522;7.266;2022-07-23T06:11:45;22.20;99.90
1447;DHT22;717;51.522;7.266;2022-07-23T06:14:13;22.20;99.90
1447;DHT22;717;51.522;7.266;2022-07-23T06:16:39;22.20;99.90
1447;DHT22;717;51.522;7.266;2022-07-23T06:19:06;22.20;99.90
1447;DHT22;717;51.522;7.266;2022-07-23T06:21:33;22.10;99.90
1447;DHT22;717;51.522;7.266;2022-07-23T06:24:00;22.20;99.90
1447;DHT22;717;51.522;7.266;2022-07-23T06:26:26;22.20;99.90
1447;DHT22;717;51.522;7.266;2022-07-23T06:28:53;22.20;99.90
1447;DHT22;717;51.522;7.266;2022-07-23T06:31:21;22.20;99.90
1447;DHT22;717;51.522;7.266;2022-07-23T06:33:48;22.20;99.90
1447;DHT22;717;51.522;7.266;2022-07-23T06:36:15;22.20;99.90
1447;DHT22;717;51.522;7.266;2022-07-23T06:38:42;22.20;99.90
1447;DHT22;717;51.522;7.266;2022-07-23T06:41:08;22.20;99.90
1447;DHT22;717;51.522;7.266;2022-07-23T06:43:35;22.20;99.90
1447;DHT22;717;51.522;7.266;2022-07-23T06:46:02;22.20;99.90
1447;DHT22;717;51.522;7.266;2022-07-23T06:48:30;22.20;99.90
1447;DHT22;717;51.522;7.266;2022-07-23T06:51:00;22.20;99.90
1447;DHT22;717;51.522;7.266;2022-07-23T06:53:27;22.20;99.90
1447;DHT22;717;51.522;7.266;2022-07-23T06:55:53;22.20;99.90
1447;DHT22;717;51.522;7.266;2022-07-23T06:58:20;22.10;99.90
1447;DHT22;717;51.522;7.266;2022-07-23T07:00:47;22.10;99.90
1447;DHT22;717;51.522;7.266;2022-07-23T07:03:14;22.10;99.90
1447;DHT22;717;51.522;7.266;2022-07-23T07:05:44;22.20;99.90
1447;DHT22;717;51.522;7.266;2022-07-23T07:08:11;22.20;99.90
1447;DHT22;717;51.522;7.266;2022-07-23T07:10:37;22.10;99.90
1447;DHT22;717;51.522;7.266;2022-07-23T07:13:04;22.10;99.90
1447;DHT22;717;51.522;7.266;2022-07-23T07:15:31;22.20;99.90
1447;DHT22;717;51.522;7.266;2022-07-23T07:17:58;22.20;99.90
1447;DHT22;717;51.522;7.266;2022-07-23T07:20:24;22.20;99.90
1447;DHT22;717;51.522;7.266;2022-07-23T07:22:52;22.20;99.90
1447;DHT22;717;51.522;7.266;2022-07-23T07:25:19;22.20;99.90
1447;DHT22;717;51.522;7.266;2022-07-23T07:27:46;22.20;99.90
1447;DHT22;717;51.522;7.266;2022-07-23T07:30:13;22.20;99.90
1447;DHT22;717;51.522;7.266;2022-07-23T07:32:40;22.30;99.90
1447;DHT22;717;51.522;7.266;2022-07-23T07:35:07;22.20;99.90
1447;DHT22;717;51.522;7.266;2022-07-23T07:37:34;22.20;99.90
1447;DHT22;717;51.522;7.266;2022-07-23T07:40:03;22.20;99.90
1447;DHT22;717;51.522;7.266;2022-07-23T07:42:30;22.20;99.90
1447;DHT22;717;51.522;7.266;2022-07-23T07:44:57;22.20;99.90
1447;DHT22;717;51.522;7.266;2022-07-23T07:47:24;22.20;99.90
1447;DHT22;717;51.522;7.266;2022-07-23T07:49:51;22.20;99.90
1447;DHT22;717;51.522;7.266;2022-07-23T07:52:18;22.20;99.90
1447;DHT22;717;51.522;7.266;2022-07-23T07:54:45;22.20;99.90
1447;DHT22;717;51.522;7.266;2022-07-23T07:57:13;22.20;99.90
1447;DHT22;717;51.522;7.266;2022-07-23T07:59:40;22.20;99.90
1447;DHT22;717;51.522;7.266;2022-07-23T08:02:06;22.20;99.90
1447;DHT22;717;51.522;7.266;2022-07-23T08:04:33;22.20;99.90
1447;DHT22;717;51.522;7.266;2022-07-23T08:07:00;22.20;99.90
1447;DHT22;717;51.522;7.266;2022-07-23T08:09:27;22.20;99.90
1447;DHT22;717;51.522;7.266;2022-07-23T08:11:54;22.20;99.90
1447;DHT22;717;51.522;7.266;2022-07-23T08:14:22;22.30;99.90
1447;DHT22;717;51.522;7.266;2022-07-23T08:16:48;22.30;99.90
1447;DHT22;717;51.522;7.266;2022-07-23T08:19:15;22.20;99.90
1447;DHT22;717;51.522;7.266;2022-07-23T08:21:42;22.30;99.90
1447;DHT22;717;51.522;7.266;2022-07-23T08:24:09;22.20;99.90
1447;DHT22;717;51.522;7.266;2022-07-23T08:26:36;22.30;99.90
1447;DHT22;717;51.522;7.266;2022-07-23T08:29:03;22.30;99.90
1447;DHT22;717;51.522;7.266;2022-07-23T08:31:31;22.30;99.90
1447;DHT22;717;51.522;7.266;2022-07-23T08:33:58;22.30;99.90
1447;DHT22;717;51.522;7.266;2022-07-23T08:36:25;22.30;99.90
1447;DHT22;717;51.522;7.266;2022-07-23T08:38:52;22.40;99.90
1447;DHT22;717;51.522;7.266;2022-07-23T08:41:19;22.40;99.90
1447;DHT22;717;51.522;7.266;2022-07-23T08:43:46;22.40;99.90
1447;DHT22;717;51.522;7.266;2022-07-23T08:46:13;22.40;99.90
1447;DHT22;717;51.522;7.266;2022-07-23T08:48:42;22.40;99.90
1447;DHT22;717;51.522;7.266;2022-07-23T08:51:09;22.40;99.90
1447;DHT22;717;51.522;7.266;2022-07-23T08:53:36;22.50;99.90
1447;DHT22;717;51.522;7.266;2022-07-23T08:56:05;22.50;99.90
1447;DHT22;717;51.522;7.266;2022-07-23T08:58:32;22.50;99.90
1447;DHT22;717;51.522;7.266;2022-07-23T09:00:59;22.50;99.90
1447;DHT22;717;51.522;7.266;2022-07-23T09:03:28;22.60;99.90
1447;DHT22;717;51.522;7.266;2022-07-23T09:05:57;22.60;99.90
1447;DHT22;717;51.522;7.266;2022-07-23T09:08:25;22.60;99.90
1447;DHT22;717;51.522;7.266;2022-07-23T09:10:55;22.60;99.90
1447;DHT22;717;51.522;7.266;2022-07-23T09:13:29;22.70;99.90
1447;DHT22;717;51.522;7.266;2022-07-23T09:15:57;22.70;99.90
1447;DHT22;717;51.522;7.266;2022-07-23T09:18:29;22.70;99.90
1447;DHT22;717;51.522;7.266;2022-07-23T09:21:10;22.80;99.90
1447;DHT22;717;51.522;7.266;2022-07-23T09:23:39;22.70;99.90
1447;DHT22;717;51.522;7.266;2022-07-23T09:26:32;22.70;99.90
1447;DHT22;717;51.522;7.266;2022-07-23T09:29:04;22.80;99.90
1447;DHT22;717;51.522;7.266;2022-07-23T09:31:34;22.80;99.90
1447;DHT22;717;51.522;7.266;2022-07-23T09:34:09;22.90;99.90
1447;DHT22;717;51.522;7.266;2022-07-23T09:36:38;22.90;99.90
1447;DHT22;717;51.522;7.266;2022-07-23T09:39:05;22.90;99.90
1447;DHT22;717;51.522;7.266;2022-07-23T09:41:39;22.90;99.90
1447;DHT22;717;51.522;7.266;2022-07-23T09:44:08;22.90;99.90
1447;DHT22;717;51.522;7.266;2022-07-23T09:46:35;23.00;99.90
1447;DHT22;717;51.522;7.266;2022-07-23T09:49:12;23.00;99.90
1447;DHT22;717;51.522;7.266;2022-07-23T09:51:46;23.10;99.90
1447;DHT22;717;51.522;7.266;2022-07-23T09:54:31;23.10;99.90
1447;DHT22;717;51.522;7.266;2022-07-23T09:57:01;23.10;99.90
1447;DHT22;717;51.522;7.266;2022-07-23T09:59:29;23.20;99.90
1447;DHT22;717;51.522;7.266;2022-07-23T10:01:58;23.20;99.90
1447;DHT22;717;51.522;7.266;2022-07-23T10:04:26;23.20;99.90
1447;DHT22;717;51.522;7.266;2022-07-23T10:06:56;23.20;99.90
1447;DHT22;717;51.522;7.266;2022-07-23T10:09:26;23.30;99.90
1447;DHT22;717;51.522;7.266;2022-07-23T10:11:57;23.30;99.90
1447;DHT22;717;51.522;7.266;2022-07-23T10:14:28;23.40;99.90
1447;DHT22;717;51.522;7.266;2022-07-23T10:16:58;23.40;99.90
1447;DHT22;717;51.522;7.266;2022-07-23T10:19:26;23.50;99.90
1447;DHT22;717;51.522;7.266;2022-07-23T10:21:57;23.50;99.90
1447;DHT22;717;51.522;7.266;2022-07-23T10:24:36;23.50;99.90
1447;DHT22;717;51.522;7.266;2022-07-23T10:27:20;23.60;99.90
1447;DHT22;717;51.522;7.266;2022-07-23T10:29:52;23.60;99.90
1447;DHT22;717;51.522;7.266;2022-07-23T10:32:30;23.60;99.90
1447;DHT22;717;51.522;7.266;2022-07-23T10:35:07;23.70;99.90
1447;DHT22;717;51.522;7.266;2022-07-23T10:37:41;23.70;99.70
1447;DHT22;717;51.522;7.266;2022-07-23T10:40:10;23.80;99.40
1447;DHT22;717;51.522;7.266;2022-07-23T10:42:37;23.80;99.20
1447;DHT22;717;51.522;7.266;2022-07-23T10:45:23;23.90;99.20
1447;DHT22;717;51.522;7.266;2022-07-23T10:47:50;23.90;99.10
1447;DHT22;717;51.522;7.266;2022-07-23T10:50:22;23.90;98.90
1447;DHT22;717;51.522;7.266;2022-07-23T10:53:14;24.00;99.10
1447;DHT22;717;51.522;7.266;2022-07-23T10:55:45;24.10;99.10
1447;DHT22;717;51.522;7.266;2022-07-23T10:58:17;24.10;99.00
1447;DHT22;717;51.522;7.266;2022-07-23T11:00:45;24.20;99.00
1447;DHT22;717;51.522;7.266;2022-07-23T11:03:33;24.20;99.00
1447;DHT22;717;51.522;7.266;2022-07-23T11:06:02;24.30;99.00
1447;DHT22;717;51.522;7.266;2022-07-23T11:08:32;24.30;99.10
1447;DHT22;717;51.522;7.266;2022-07-23T11:11:10;24.30;99.10
1447;DHT22;717;51.522;7.266;2022-07-23T11:13:50;24.40;98.90
1447;DHT22;717;51.522;7.266;2022-07-23T11:16:20;24.40;99.00
1447;DHT22;717;51.522;7.266;2022-07-23T11:19:08;24.50;98.80
1447;DHT22;717;51.522;7.266;2022-07-23T11:21:46;24.50;98.50
1447;DHT22;717;51.522;7.266;2022-07-23T11:24:16;24.60;98.40
1447;DHT22;717;51.522;7.266;2022-07-23T11:26:45;24.60;98.20
1447;DHT22;717;51.522;7.266;2022-07-23T11:32:35;24.70;98.00
1447;DHT22;717;51.522;7.266;2022-07-23T11:35:21;24.70;97.90
1447;DHT22;717;51.522;7.266;2022-07-23T11:37:49;24.80;97.70
1447;DHT22;717;51.522;7.266;2022-07-23T11:40:20;24.80;97.70
1447;DHT22;717;51.522;7.266;2022-07-23T11:43:06;24.90;97.60
1447;DHT22;717;51.522;7.266;2022-07-23T11:45:35;24.90;97.00
1447;DHT22;717;51.522;7.266;2022-07-23T11:48:04;24.90;96.90
1447;DHT22;717;51.522;7.266;2022-07-23T11:50:31;25.00;96.80
1447;DHT22;717;51.522;7.266;2022-07-23T11:52:58;25.00;96.80
1447;DHT22;717;51.522;7.266;2022-07-23T11:55:27;25.10;96.80
1447;DHT22;717;51.522;7.266;2022-07-23T11:57:54;25.10;96.80
1447;DHT22;717;51.522;7.266;2022-07-23T12:00:24;25.10;96.60
1447;DHT22;717;51.522;7.266;2022-07-23T12:02:53;25.20;96.40
1447;DHT22;717;51.522;7.266;2022-07-23T12:05:22;25.30;95.90
1447;DHT22;717;51.522;7.266;2022-07-23T12:07:51;25.30;96.00
1447;DHT22;717;51.522;7.266;2022-07-23T12:10:19;25.30;95.80
1447;DHT22;717;51.522;7.266;2022-07-23T12:12:49;25.40;95.90
1447;DHT22;717;51.522;7.266;2022-07-23T12:15:18;25.40;95.90
1447;DHT22;717;51.522;7.266;2022-07-23T12:17:47;25.50;95.80
1447;DHT22;717;51.522;7.266;2022-07-23T12:20:17;25.50;95.80
1447;DHT22;717;51.522;7.266;2022-07-23T12:22:46;25.60;95.50
1447;DHT22;717;51.522;7.266;2022-07-23T12:25:14;25.60;95.30
1447;DHT22;717;51.522;7.266;2022-07-23T12:27:42;25.70;95.10
1447;DHT22;717;51.522;7.266;2022-07-23T12:30:21;25.70;94.90
1447;DHT22;717;51.522;7.266;2022-07-23T12:32:51;25.70;95.00
1447;DHT22;717;51.522;7.266;2022-07-23T12:35:18;25.70;94.80
1447;DHT22;717;51.522;7.266;2022-07-23T12:37:47;25.70;95.00
1447;DHT22;717;51.522;7.266;2022-07-23T12:40:25;25.80;95.20
1447;DHT22;717;51.522;7.266;2022-07-23T12:42:56;25.80;95.00
1447;DHT22;717;51.522;7.266;2022-07-23T12:45:25;25.80;95.00
1447;DHT22;717;51.522;7.266;2022-07-23T12:47:53;25.80;94.80
1447;DHT22;717;51.522;7.266;2022-07-23T12:50:49;25.90;94.90
1447;DHT22;717;51.522;7.266;2022-07-23T12:53:18;25.90;94.60
1447;DHT22;717;51.522;7.266;2022-07-23T12:55:47;26.00;94.50
1447;DHT22;717;51.522;7.266;2022-07-23T12:58:16;26.00;94.10
1447;DHT22;717;51.522;7.266;2022-07-23T13:00:56;26.00;93.90
1447;DHT22;717;51.522;7.266;2022-07-23T13:03:25;26.10;93.90
1447;DHT22;717;51.522;7.266;2022-07-23T13:05:52;26.10;93.80
1447;DHT22;717;51.522;7.266;2022-07-23T13:08:19;26.10;94.10
1447;DHT22;717;51.522;7.266;2022-07-23T13:10:46;26.20;94.10
1447;DHT22;717;51.522;7.266;2022-07-23T13:13:14;26.30;94.30
1447;DHT22;717;51.522;7.266;2022-07-23T13:15:42;26.30;94.10
1447;DHT22;717;51.522;7.266;2022-07-23T13:18:10;26.40;93.80
1447;DHT22;717;51.522;7.266;2022-07-23T13:20:37;26.40;93.70
1447;DHT22;717;51.522;7.266;2022-07-23T13:23:05;26.50;93.60
1447;DHT22;717;51.522;7.266;2022-07-23T13:25:32;26.50;93.60
1447;DHT22;717;51.522;7.266;2022-07-23T13:27:59;26.60;93.40
1447;DHT22;717;51.522;7.266;2022-07-23T13:30:26;26.60;93.20
1447;DHT22;717;51.522;7.266;2022-07-23T13:32:53;26.70;93.00
1447;DHT22;717;51.522;7.266;2022-07-23T13:35:21;26.70;92.80
1447;DHT22;717;51.522;7.266;2022-07-23T13:37:48;26.70;92.60
1447;DHT22;717;51.522;7.266;2022-07-23T13:40:15;26.70;92.20
1447;DHT22;717;51.522;7.266;2022-07-23T13:42:41;26.70;92.20
1447;DHT22;717;51.522;7.266;2022-07-23T13:45:09;26.70;92.20
1447;DHT22;717;51.522;7.266;2022-07-23T13:47:36;26.70;92.00
1447;DHT22;717;51.522;7.266;2022-07-23T13:50:03;26.70;92.00
1447;DHT22;717;51.522;7.266;2022-07-23T13:52:32;26.80;92.20
1447;DHT22;717;51.522;7.266;2022-07-23T13:54:59;26.80;92.30
1447;DHT22;717;51.522;7.266;2022-07-23T13:57:26;26.90;92.30
1447;DHT22;717;51.522;7.266;2022-07-23T13:59:53;26.90;92.60
1447;DHT22;717;51.522;7.266;2022-07-23T14:02:20;26.90;92.80
1447;DHT22;717;51.522;7.266;2022-07-23T14:04:46;27.00;92.80
1447;DHT22;717;51.522;7.266;2022-07-23T14:07:13;27.00;92.20
1447;DHT22;717;51.522;7.266;2022-07-23T14:09:41;27.00;92.10
1447;DHT22;717;51.522;7.266;2022-07-23T14:12:09;27.10;92.20
1447;DHT22;717;51.522;7.266;2022-07-23T14:14:36;27.10;92.40
1447;DHT22;717;51.522;7.266;2022-07-23T14:17:03;27.10;92.20
1447;DHT22;717;51.522;7.266;2022-07-23T14:19:30;27.20;91.60
1447;DHT22;717;51.522;7.266;2022-07-23T14:21:56;27.20;91.50
1447;DHT22;717;51.522;7.266;2022-07-23T14:24:23;27.30;91.40
1447;DHT22;717;51.522;7.266;2022-07-23T14:26:51;27.30;91.30
1447;DHT22;717;51.522;7.266;2022-07-23T14:29:18;27.30;91.10
1447;DHT22;717;51.522;7.266;2022-07-23T14:31:45;27.40;91.00
1447;DHT22;717;51.522;7.266;2022-07-23T14:34:12;27.40;90.60
1447;DHT22;717;51.522;7.266;2022-07-23T14:36:39;27.40;90.60
1447;DHT22;717;51.522;7.266;2022-07-23T14:39:06;27.50;90.70
1447;DHT22;717;51.522;7.266;2022-07-23T14:41:34;27.50;89.90
1447;DHT22;717;51.522;7.266;2022-07-23T14:44:03;27.50;89.10
1447;DHT22;717;51.522;7.266;2022-07-23T14:46:30;27.60;89.60
1447;DHT22;717;51.522;7.266;2022-07-23T14:48:57;27.60;90.20
1447;DHT22;717;51.522;7.266;2022-07-23T14:51:24;27.60;90.40
1447;DHT22;717;51.522;7.266;2022-07-23T14:53:51;27.70;90.70
1447;DHT22;717;51.522;7.266;2022-07-23T14:56:18;27.70;90.40
1447;DHT22;717;51.522;7.266;2022-07-23T14:58:45;27.80;90.20
1447;DHT22;717;51.522;7.266;2022-07-23T15:01:13;27.80;90.10
1447;DHT22;717;51.522;7.266;2022-07-23T15:03:41;27.80;90.10
1447;DHT22;717;51.522;7.266;2022-07-23T15:06:07;27.80;90.00
1447;DHT22;717;51.522;7.266;2022-07-23T15:08:34;27.90;90.00
1447;DHT22;717;51.522;7.266;2022-07-23T15:11:01;27.90;89.60
1447;DHT22;717;51.522;7.266;2022-07-23T15:13:28;27.90;88.80
1447;DHT22;717;51.522;7.266;2022-07-23T15:15:55;28.00;88.90
1447;DHT22;717;51.522;7.266;2022-07-23T15:18:23;28.10;88.60
1447;DHT22;717;51.522;7.266;2022-07-23T15:20:50;28.10;88.10
1447;DHT22;717;51.522;7.266;2022-07-23T15:23:17;28.10;87.60
1447;DHT22;717;51.522;7.266;2022-07-23T15:25:43;28.10;87.70
1447;DHT22;717;51.522;7.266;2022-07-23T15:28:10;28.10;87.70
1447;DHT22;717;51.522;7.266;2022-07-23T15:30:37;28.20;87.50
1447;DHT22;717;51.522;7.266;2022-07-23T15:33:04;28.20;88.00
1447;DHT22;717;51.522;7.266;2022-07-23T15:35:32;28.20;88.10
1447;DHT22;717;51.522;7.266;2022-07-23T15:37:59;28.20;88.40
1447;DHT22;717;51.522;7.266;2022-07-23T15:40:26;28.20;88.10
1447;DHT22;717;51.522;7.266;2022-07-23T15:42:53;28.30;87.60
1447;DHT22;717;51.522;7.266;2022-07-23T15:45:20;28.20;87.70
1447;DHT22;717;51.522;7.266;2022-07-23T15:47:47;28.20;87.20
1447;DHT22;717;51.522;7.266;2022-07-23T15:50:15;28.20;86.80
1447;DHT22;717;51.522;7.266;2022-07-23T15:52:43;28.10;87.00
1447;DHT22;717;51.522;7.266;2022-07-23T15:55:10;28.10;86.60
1447;DHT22;717;51.522;7.266;2022-07-23T15:57:37;28.10;86.10
1447;DHT22;717;51.522;7.266;2022-07-23T16:00:05;28.10;85.70
1447;DHT22;717;51.522;7.266;2022-07-23T16:02:33;28.10;86.20
1447;DHT22;717;51.522;7.266;2022-07-23T16:04:59;28.00;86.30
1447;DHT22;717;51.522;7.266;2022-07-23T16:07:26;28.00;86.00
1447;DHT22;717;51.522;7.266;2022-07-23T16:09:54;28.00;86.50
1447;DHT22;717;51.522;7.266;2022-07-23T16:12:21;27.90;87.10
1447;DHT22;717;51.522;7.266;2022-07-23T16:14:48;28.00;87.50
1447;DHT22;717;51.522;7.266;2022-07-23T16:17:15;28.00;87.70
1447;DHT22;717;51.522;7.266;2022-07-23T16:19:41;28.00;87.50
1447;DHT22;717;51.522;7.266;2022-07-23T16:22:08;28.00;87.20
1447;DHT22;717;51.522;7.266;2022-07-23T16:24:36;28.00;86.80
1447;DHT22;717;51.522;7.266;2022-07-23T16:27:04;28.00;86.70
1447;DHT22;717;51.522;7.266;2022-07-23T16:29:31;28.00;86.90
1447;DHT22;717;51.522;7.266;2022-07-23T16:31:58;28.10;86.90
1447;DHT22;717;51.522;7.266;2022-07-23T16:34:24;28.10;86.30
1447;DHT22;717;51.522;7.266;2022-07-23T16:36:51;28.10;86.10
1447;DHT22;717;51.522;7.266;2022-07-23T16:39:18;28.10;87.30
1447;DHT22;717;51.522;7.266;2022-07-23T16:41:45;28.10;87.40
1447;DHT22;717;51.522;7.266;2022-07-23T16:44:13;28.10;87.60
1447;DHT22;717;51.522;7.266;2022-07-23T16:46:40;28.20;87.50
1447;DHT22;717;51.522;7.266;2022-07-23T16:49:07;28.10;86.90
1447;DHT22;717;51.522;7.266;2022-07-23T16:51:34;28.20;86.60
1447;DHT22;717;51.522;7.266;2022-07-23T16:54:01;28.10;86.80
1447;DHT22;717;51.522;7.266;2022-07-23T16:56:28;28.10;86.00
1447;DHT22;717;51.522;7.266;2022-07-23T16:58:55;28.10;86.00
1447;DHT22;717;51.522;7.266;2022-07-23T17:01:23;28.10;86.20
1447;DHT22;717;51.522;7.266;2022-07-23T17:03:50;28.20;86.20